sensor_id;sensor_type;location;lat;lon;timestamp;P1;durP1;ratioP1;P2;durP2;ratioP2
44098;SDS011;29762;50.086;14.364;2023-03-12T00:04:08;1.48;;;1.13;;
44098;SDS011;29762;50.086;14.364;2023-03-12T00:09:28;2.00;;;1.10;;
44098;SDS011;29762;50.086;14.364;2023-03-12T00:14:47;1.20;;;1.00;;
44098;SDS011;29762;50.086;14.364;2023-03-12T00:20:07;1.58;;;1.08;;
44098;SDS011;29762;50.086;14.364;2023-03-12T00:25:27;1.65;;;1.38;;
44098;SDS011;29762;50.086;14.364;2023-03-12T00:30:46;1.98;;;1.13;;
44098;SDS011;29762;50.086;14.364;2023-03-12T00:36:06;1.42;;;0.98;;
44098;SDS011;29762;50.086;14.364;2023-03-12T00:41:26;1.10;;;1.00;;
44098;SDS011;29762;50.086;14.364;2023-03-12T00:46:46;1.92;;;1.02;;
44098;SDS011;29762;50.086;14.364;2023-03-12T00:52:05;1.25;;;1.05;;
44098;SDS011;29762;50.086;14.364;2023-03-12T00:57:25;1.52;;;0.93;;
44098;SDS011;29762;50.086;14.364;2023-03-12T01:02:44;1.38;;;1.02;;
44098;SDS011;29762;50.086;14.364;2023-03-12T01:08:04;1.45;;;0.95;;
44098;SDS011;29762;50.086;14.364;2023-03-12T01:13:27;1.20;;;0.95;;
44098;SDS011;29762;50.086;14.364;2023-03-12T01:18:47;1.02;;;0.93;;
44098;SDS011;29762;50.086;14.364;2023-03-12T01:24:07;1.35;;;0.90;;
44098;SDS011;29762;50.086;14.364;2023-03-12T01:29:26;1.23;;;0.95;;
44098;SDS011;29762;50.086;14.364;2023-03-12T01:34:46;1.77;;;1.13;;
44098;SDS011;29762;50.086;14.364;2023-03-12T01:40:06;1.17;;;0.98;;
44098;SDS011;29762;50.086;14.364;2023-03-12T01:51:20;1.13;;;0.95;;
44098;SDS011;29762;50.086;14.364;2023-03-12T01:56:40;1.17;;;1.08;;
44098;SDS011;29762;50.086;14.364;2023-03-12T02:02:02;1.25;;;0.93;;
44098;SDS011;29762;50.086;14.364;2023-03-12T02:07:22;0.88;;;0.80;;
44098;SDS011;29762;50.086;14.364;2023-03-12T02:12:42;1.40;;;1.00;;
44098;SDS011;29762;50.086;14.364;2023-03-12T02:18:02;2.17;;;1.00;;
44098;SDS011;29762;50.086;14.364;2023-03-12T02:23:28;1.08;;;0.85;;
44098;SDS011;29762;50.086;14.364;2023-03-12T02:28:50;1.02;;;0.90;;
44098;SDS011;29762;50.086;14.364;2023-03-12T02:34:12;1.23;;;1.10;;
44098;SDS011;29762;50.086;14.364;2023-03-12T02:39:32;1.15;;;0.90;;
44098;SDS011;29762;50.086;14.364;2023-03-12T02:44:51;1.02;;;0.70;;
44098;SDS011;29762;50.086;14.364;2023-03-12T02:50:12;1.35;;;0.95;;
44098;SDS011;29762;50.086;14.364;2023-03-12T02:55:32;0.77;;;0.77;;
44098;SDS011;29762;50.086;14.364;2023-03-12T03:00:51;1.20;;;0.90;;
44098;SDS011;29762;50.086;14.364;2023-03-12T03:06:11;0.68;;;0.68;;
44098;SDS011;29762;50.086;14.364;2023-03-12T03:11:32;0.77;;;0.77;;
44098;SDS011;29762;50.086;14.364;2023-03-12T03:16:54;1.20;;;0.73;;
44098;SDS011;29762;50.086;14.364;2023-03-12T03:22:15;1.58;;;0.95;;
44098;SDS011;29762;50.086;14.364;2023-03-12T03:27:35;1.10;;;0.80;;
44098;SDS011;29762;50.086;14.364;2023-03-12T03:32:55;1.33;;;0.90;;
44098;SDS011;29762;50.086;14.364;2023-03-12T03:38:14;1.00;;;0.90;;
44098;SDS011;29762;50.086;14.364;2023-03-12T03:43:34;0.98;;;0.82;;
44098;SDS011;29762;50.086;14.364;2023-03-12T03:48:54;0.90;;;0.80;;
44098;SDS011;29762;50.086;14.364;2023-03-12T03:54:15;0.70;;;0.70;;
44098;SDS011;29762;50.086;14.364;2023-03-12T03:59:37;0.75;;;0.70;;
44098;SDS011;29762;50.086;14.364;2023-03-12T04:04:57;1.23;;;0.73;;
44098;SDS011;29762;50.086;14.364;2023-03-12T04:10:19;2.20;;;0.90;;
44098;SDS011;29762;50.086;14.364;2023-03-12T04:15:44;0.80;;;0.80;;
44098;SDS011;29762;50.086;14.364;2023-03-12T04:21:06;0.88;;;0.70;;
44098;SDS011;29762;50.086;14.364;2023-03-12T04:26:27;1.08;;;0.95;;
44098;SDS011;29762;50.086;14.364;2023-03-12T04:31:47;0.98;;;0.70;;
44098;SDS011;29762;50.086;14.364;2023-03-12T04:37:07;0.90;;;0.70;;
44098;SDS011;29762;50.086;14.364;2023-03-12T04:42:30;0.80;;;0.80;;
44098;SDS011;29762;50.086;14.364;2023-03-12T04:47:49;0.95;;;0.85;;
44098;SDS011;29762;50.086;14.364;2023-03-12T04:53:10;0.98;;;0.88;;
44098;SDS011;29762;50.086;14.364;2023-03-12T04:58:29;0.93;;;0.82;;
44098;SDS011;29762;50.086;14.364;2023-03-12T05:03:49;0.75;;;0.75;;
44098;SDS011;29762;50.086;14.364;2023-03-12T05:09:09;0.80;;;0.63;;
44098;SDS011;29762;50.086;14.364;2023-03-12T05:14:29;1.00;;;0.90;;
44098;SDS011;29762;50.086;14.364;2023-03-12T05:19:49;0.80;;;0.80;;
44098;SDS011;29762;50.086;14.364;2023-03-12T05:25:09;1.50;;;0.80;;
44098;SDS011;29762;50.086;14.364;2023-03-12T05:30:29;0.85;;;0.85;;
44098;SDS011;29762;50.086;14.364;2023-03-12T05:35:49;0.80;;;0.65;;
44098;SDS011;29762;50.086;14.364;2023-03-12T05:41:16;1.05;;;0.80;;
44098;SDS011;29762;50.086;14.364;2023-03-12T05:46:47;1.07;;;0.80;;
44098;SDS011;29762;50.086;14.364;2023-03-12T05:52:07;1.17;;;0.75;;
44098;SDS011;29762;50.086;14.364;2023-03-12T05:57:27;0.80;;;0.80;;
44098;SDS011;29762;50.086;14.364;2023-03-12T06:02:46;0.77;;;0.63;;
44098;SDS011;29762;50.086;14.364;2023-03-12T06:08:07;0.80;;;0.70;;
44098;SDS011;29762;50.086;14.364;2023-03-12T06:13:27;0.80;;;0.80;;
44098;SDS011;29762;50.086;14.364;2023-03-12T06:19:09;1.00;;;0.85;;
44098;SDS011;29762;50.086;14.364;2023-03-12T06:24:32;0.80;;;0.73;;
44098;SDS011;29762;50.086;14.364;2023-03-12T06:29:55;1.00;;;0.90;;
44098;SDS011;29762;50.086;14.364;2023-03-12T06:35:14;0.85;;;0.80;;
44098;SDS011;29762;50.086;14.364;2023-03-12T06:40:34;0.90;;;0.73;;
44098;SDS011;29762;50.086;14.364;2023-03-12T06:45:54;0.77;;;0.77;;
44098;SDS011;29762;50.086;14.364;2023-03-12T06:51:14;0.95;;;0.80;;
44098;SDS011;29762;50.086;14.364;2023-03-12T06:56:34;0.80;;;0.80;;
44098;SDS011;29762;50.086;14.364;2023-03-12T07:01:54;0.80;;;0.80;;
44098;SDS011;29762;50.086;14.364;2023-03-12T07:07:13;0.60;;;0.60;;
44098;SDS011;29762;50.086;14.364;2023-03-12T07:12:35;0.65;;;0.65;;
44098;SDS011;29762;50.086;14.364;2023-03-12T07:17:54;0.93;;;0.80;;
44098;SDS011;29762;50.086;14.364;2023-03-12T07:23:18;0.95;;;0.70;;
44098;SDS011;29762;50.086;14.364;2023-03-12T07:28:38;0.77;;;0.77;;
44098;SDS011;29762;50.086;14.364;2023-03-12T07:33:57;1.10;;;0.90;;
44098;SDS011;29762;50.086;14.364;2023-03-12T07:39:17;0.90;;;0.73;;
44098;SDS011;29762;50.086;14.364;2023-03-12T07:44:37;1.35;;;0.93;;
44098;SDS011;29762;50.086;14.364;2023-03-12T07:49:57;0.82;;;0.80;;
44098;SDS011;29762;50.086;14.364;2023-03-12T07:55:19;0.98;;;0.80;;
44098;SDS011;29762;50.086;14.364;2023-03-12T08:00:38;1.00;;;0.90;;
44098;SDS011;29762;50.086;14.364;2023-03-12T08:05:59;0.93;;;0.80;;
44098;SDS011;29762;50.086;14.364;2023-03-12T08:11:20;0.80;;;0.80;;
44098;SDS011;29762;50.086;14.364;2023-03-12T08:16:39;0.90;;;0.80;;
44098;SDS011;29762;50.086;14.364;2023-03-12T08:21:59;1.10;;;1.00;;
44098;SDS011;29762;50.086;14.364;2023-03-12T08:27:18;1.10;;;0.85;;
44098;SDS011;29762;50.086;14.364;2023-03-12T08:32:38;3.35;;;2.70;;
44098;SDS011;29762;50.086;14.364;2023-03-12T08:37:58;1.70;;;1.60;;
44098;SDS011;29762;50.086;14.364;2023-03-12T08:43:19;2.30;;;1.55;;
44098;SDS011;29762;50.086;14.364;2023-03-12T08:48:38;1.60;;;1.50;;
44098;SDS011;29762;50.086;14.364;2023-03-12T08:53:59;2.72;;;1.48;;
44098;SDS011;29762;50.086;14.364;2023-03-12T08:59:19;2.05;;;1.70;;
44098;SDS011;29762;50.086;14.364;2023-03-12T09:04:39;2.50;;;1.83;;
44098;SDS011;29762;50.086;14.364;2023-03-12T09:09:58;2.15;;;1.80;;
44098;SDS011;29762;50.086;14.364;2023-03-12T09:15:18;2.30;;;1.80;;
44098;SDS011;29762;50.086;14.364;2023-03-12T09:20:38;2.55;;;1.90;;
44098;SDS011;29762;50.086;14.364;2023-03-12T09:25:57;2.53;;;1.60;;
44098;SDS011;29762;50.086;14.364;2023-03-12T09:31:16;2.20;;;1.80;;
44098;SDS011;29762;50.086;14.364;2023-03-12T09:36:36;1.70;;;1.40;;
44098;SDS011;29762;50.086;14.364;2023-03-12T09:41:56;2.22;;;1.67;;
44098;SDS011;29762;50.086;14.364;2023-03-12T09:47:20;2.30;;;1.50;;
44098;SDS011;29762;50.086;14.364;2023-03-12T09:52:47;1.73;;;1.50;;
44098;SDS011;29762;50.086;14.364;2023-03-12T09:58:14;2.40;;;1.58;;
44098;SDS011;29762;50.086;14.364;2023-03-12T10:20:21;1.75;;;1.20;;
44098;SDS011;29762;50.086;14.364;2023-03-12T10:25:45;3.72;;;1.50;;
44098;SDS011;29762;50.086;14.364;2023-03-12T10:36:59;3.35;;;1.65;;
44098;SDS011;29762;50.086;14.364;2023-03-12T10:42:24;4.03;;;1.40;;
44098;SDS011;29762;50.086;14.364;2023-03-12T10:47:49;2.60;;;1.55;;
44098;SDS011;29762;50.086;14.364;2023-03-12T10:58:42;3.63;;;1.40;;
44098;SDS011;29762;50.086;14.364;2023-03-12T11:04:07;4.03;;;1.75;;
44098;SDS011;29762;50.086;14.364;2023-03-12T11:09:32;1.98;;;1.70;;
44098;SDS011;29762;50.086;14.364;2023-03-12T11:14:51;3.92;;;1.67;;
44098;SDS011;29762;50.086;14.364;2023-03-12T11:25:39;2.03;;;1.50;;
44098;SDS011;29762;50.086;14.364;2023-03-12T11:30:59;3.28;;;1.75;;
44098;SDS011;29762;50.086;14.364;2023-03-12T11:53:13;2.55;;;1.38;;
44098;SDS011;29762;50.086;14.364;2023-03-12T11:58:48;2.70;;;1.73;;
44098;SDS011;29762;50.086;14.364;2023-03-12T12:26:18;1.90;;;1.17;;
44098;SDS011;29762;50.086;14.364;2023-03-12T12:37:18;2.75;;;1.35;;
44098;SDS011;29762;50.086;14.364;2023-03-12T12:54:45;1.38;;;1.13;;
44098;SDS011;29762;50.086;14.364;2023-03-12T13:05:57;1.52;;;1.10;;
44098;SDS011;29762;50.086;14.364;2023-03-12T13:11:27;3.27;;;1.37;;
44098;SDS011;29762;50.086;14.364;2023-03-12T13:16:49;4.47;;;1.10;;
44098;SDS011;29762;50.086;14.364;2023-03-12T13:22:28;1.70;;;1.10;;
44098;SDS011;29762;50.086;14.364;2023-03-12T13:28:01;1.97;;;1.40;;
44098;SDS011;29762;50.086;14.364;2023-03-12T13:33:58;2.63;;;1.50;;
44098;SDS011;29762;50.086;14.364;2023-03-12T13:39:27;2.10;;;1.27;;
44098;SDS011;29762;50.086;14.364;2023-03-12T13:44:48;1.45;;;1.30;;
44098;SDS011;29762;50.086;14.364;2023-03-12T13:50:13;2.30;;;1.30;;
44098;SDS011;29762;50.086;14.364;2023-03-12T13:55:34;3.15;;;1.35;;
44098;SDS011;29762;50.086;14.364;2023-03-12T14:00:56;3.85;;;1.73;;
44098;SDS011;29762;50.086;14.364;2023-03-12T14:06:20;3.53;;;1.60;;
44098;SDS011;29762;50.086;14.364;2023-03-12T14:17:15;4.03;;;2.00;;
44098;SDS011;29762;50.086;14.364;2023-03-12T14:22:37;4.82;;;1.80;;
44098;SDS011;29762;50.086;14.364;2023-03-12T14:27:57;4.47;;;2.08;;
44098;SDS011;29762;50.086;14.364;2023-03-12T14:33:17;5.75;;;2.20;;
44098;SDS011;29762;50.086;14.364;2023-03-12T14:38:41;6.60;;;2.20;;
44098;SDS011;29762;50.086;14.364;2023-03-12T14:44:04;4.82;;;2.00;;
44098;SDS011;29762;50.086;14.364;2023-03-12T14:49:42;3.78;;;1.80;;
44098;SDS011;29762;50.086;14.364;2023-03-12T14:55:06;5.32;;;2.00;;
44098;SDS011;29762;50.086;14.364;2023-03-12T15:00:29;6.45;;;2.15;;
44098;SDS011;29762;50.086;14.364;2023-03-12T15:05:49;5.55;;;2.15;;
44098;SDS011;29762;50.086;14.364;2023-03-12T15:11:09;6.80;;;2.20;;
44098;SDS011;29762;50.086;14.364;2023-03-12T15:16:29;4.60;;;2.40;;
44098;SDS011;29762;50.086;14.364;2023-03-12T15:21:49;3.97;;;1.90;;
44098;SDS011;29762;50.086;14.364;2023-03-12T15:33:02;4.50;;;1.95;;
44098;SDS011;29762;50.086;14.364;2023-03-12T15:38:25;4.30;;;1.90;;
44098;SDS011;29762;50.086;14.364;2023-03-12T15:43:46;4.07;;;2.00;;
44098;SDS011;29762;50.086;14.364;2023-03-12T15:49:10;2.10;;;1.23;;
44098;SDS011;29762;50.086;14.364;2023-03-12T16:00:40;3.80;;;1.80;;
44098;SDS011;29762;50.086;14.364;2023-03-12T16:06:01;3.92;;;1.60;;
44098;SDS011;29762;50.086;14.364;2023-03-12T16:11:21;3.90;;;2.08;;
44098;SDS011;29762;50.086;14.364;2023-03-12T16:16:43;3.40;;;1.80;;
44098;SDS011;29762;50.086;14.364;2023-03-12T16:22:03;4.82;;;1.92;;
44098;SDS011;29762;50.086;14.364;2023-03-12T16:27:23;4.10;;;2.00;;
44098;SDS011;29762;50.086;14.364;2023-03-12T16:32:42;4.40;;;1.88;;
44098;SDS011;29762;50.086;14.364;2023-03-12T16:38:02;3.55;;;1.98;;
44098;SDS011;29762;50.086;14.364;2023-03-12T16:43:22;3.35;;;1.90;;
44098;SDS011;29762;50.086;14.364;2023-03-12T16:48:43;4.85;;;2.00;;
44098;SDS011;29762;50.086;14.364;2023-03-12T16:54:03;3.92;;;1.90;;
44098;SDS011;29762;50.086;14.364;2023-03-12T16:59:23;4.70;;;2.08;;
44098;SDS011;29762;50.086;14.364;2023-03-12T17:04:44;3.50;;;1.70;;
44098;SDS011;29762;50.086;14.364;2023-03-12T17:10:03;3.95;;;2.08;;
44098;SDS011;29762;50.086;14.364;2023-03-12T17:15:24;3.85;;;1.90;;
44098;SDS011;29762;50.086;14.364;2023-03-12T17:20:48;45.20;;;31.63;;
44098;SDS011;29762;50.086;14.364;2023-03-12T17:26:09;26.13;;;16.95;;
44098;SDS011;29762;50.086;14.364;2023-03-12T17:31:29;20.88;;;13.57;;
44098;SDS011;29762;50.086;14.364;2023-03-12T17:36:49;19.10;;;12.60;;
44098;SDS011;29762;50.086;14.364;2023-03-12T17:42:08;19.55;;;12.20;;
44098;SDS011;29762;50.086;14.364;2023-03-12T17:47:28;16.85;;;10.93;;
44098;SDS011;29762;50.086;14.364;2023-03-12T17:52:47;17.25;;;10.52;;
44098;SDS011;29762;50.086;14.364;2023-03-12T17:58:07;15.70;;;10.20;;
44098;SDS011;29762;50.086;14.364;2023-03-12T18:03:26;17.33;;;10.80;;
44098;SDS011;29762;50.086;14.364;2023-03-12T18:08:46;17.25;;;9.48;;
44098;SDS011;29762;50.086;14.364;2023-03-12T18:14:06;12.65;;;8.60;;
44098;SDS011;29762;50.086;14.364;2023-03-12T18:19:26;12.98;;;8.55;;
44098;SDS011;29762;50.086;14.364;2023-03-12T18:24:47;14.10;;;8.63;;
44098;SDS011;29762;50.086;14.364;2023-03-12T18:30:06;14.18;;;8.02;;
44098;SDS011;29762;50.086;14.364;2023-03-12T18:35:29;15.65;;;8.05;;
44098;SDS011;29762;50.086;14.364;2023-03-12T18:40:48;14.65;;;7.38;;
44098;SDS011;29762;50.086;14.364;2023-03-12T18:46:09;12.60;;;7.97;;
44098;SDS011;29762;50.086;14.364;2023-03-12T18:51:29;12.27;;;7.88;;
44098;SDS011;29762;50.086;14.364;2023-03-12T18:56:49;12.65;;;7.47;;
44098;SDS011;29762;50.086;14.364;2023-03-12T19:02:08;10.85;;;7.30;;
44098;SDS011;29762;50.086;14.364;2023-03-12T19:07:28;11.70;;;7.57;;
44098;SDS011;29762;50.086;14.364;2023-03-12T19:12:52;11.80;;;7.57;;
44098;SDS011;29762;50.086;14.364;2023-03-12T19:18:11;11.77;;;6.85;;
44098;SDS011;29762;50.086;14.364;2023-03-12T19:23:30;12.55;;;6.75;;
44098;SDS011;29762;50.086;14.364;2023-03-12T19:28:50;11.43;;;6.40;;
44098;SDS011;29762;50.086;14.364;2023-03-12T19:34:09;9.45;;;6.32;;
44098;SDS011;29762;50.086;14.364;2023-03-12T19:39:29;10.68;;;6.97;;
44098;SDS011;29762;50.086;14.364;2023-03-12T19:44:48;9.93;;;6.72;;
44098;SDS011;29762;50.086;14.364;2023-03-12T19:50:10;13.52;;;6.28;;
44098;SDS011;29762;50.086;14.364;2023-03-12T19:55:30;10.10;;;6.07;;
44098;SDS011;29762;50.086;14.364;2023-03-12T20:00:50;9.15;;;5.78;;
44098;SDS011;29762;50.086;14.364;2023-03-12T20:06:10;10.73;;;6.50;;
44098;SDS011;29762;50.086;14.364;2023-03-12T20:11:31;9.10;;;5.78;;
44098;SDS011;29762;50.086;14.364;2023-03-12T20:16:53;8.60;;;5.65;;
44098;SDS011;29762;50.086;14.364;2023-03-12T20:22:13;9.40;;;5.78;;
44098;SDS011;29762;50.086;14.364;2023-03-12T20:27:32;9.27;;;5.47;;
44098;SDS011;29762;50.086;14.364;2023-03-12T20:32:52;10.35;;;5.70;;
44098;SDS011;29762;50.086;14.364;2023-03-12T20:38:12;9.30;;;5.32;;
44098;SDS011;29762;50.086;14.364;2023-03-12T20:43:31;9.50;;;5.38;;
44098;SDS011;29762;50.086;14.364;2023-03-12T20:48:50;8.73;;;5.60;;
44098;SDS011;29762;50.086;14.364;2023-03-12T20:54:10;8.27;;;5.53;;
44098;SDS011;29762;50.086;14.364;2023-03-12T20:59:30;7.90;;;5.28;;
44098;SDS011;29762;50.086;14.364;2023-03-12T21:04:50;7.47;;;4.88;;
44098;SDS011;29762;50.086;14.364;2023-03-12T21:10:11;7.05;;;4.78;;
44098;SDS011;29762;50.086;14.364;2023-03-12T21:15:31;6.68;;;4.93;;
44098;SDS011;29762;50.086;14.364;2023-03-12T21:20:50;7.55;;;4.65;;
44098;SDS011;29762;50.086;14.364;2023-03-12T21:26:10;8.10;;;4.70;;
44098;SDS011;29762;50.086;14.364;2023-03-12T21:31:29;5.60;;;4.40;;
44098;SDS011;29762;50.086;14.364;2023-03-12T21:36:49;5.97;;;4.70;;
44098;SDS011;29762;50.086;14.364;2023-03-12T21:42:08;6.97;;;4.63;;
44098;SDS011;29762;50.086;14.364;2023-03-12T21:47:27;6.80;;;4.63;;
44098;SDS011;29762;50.086;14.364;2023-03-12T21:52:47;9.25;;;4.93;;
44098;SDS011;29762;50.086;14.364;2023-03-12T21:58:07;7.38;;;4.63;;
44098;SDS011;29762;50.086;14.364;2023-03-12T22:03:29;4.97;;;3.92;;
44098;SDS011;29762;50.086;14.364;2023-03-12T22:08:49;5.95;;;4.32;;
44098;SDS011;29762;50.086;14.364;2023-03-12T22:14:10;6.18;;;4.32;;
44098;SDS011;29762;50.086;14.364;2023-03-12T22:19:29;5.63;;;3.83;;
44098;SDS011;29762;50.086;14.364;2023-03-12T22:24:49;5.70;;;3.75;;
44098;SDS011;29762;50.086;14.364;2023-03-12T22:30:08;6.78;;;4.22;;
44098;SDS011;29762;50.086;14.364;2023-03-12T22:35:30;5.45;;;3.50;;
44098;SDS011;29762;50.086;14.364;2023-03-12T22:40:50;6.45;;;3.50;;
44098;SDS011;29762;50.086;14.364;2023-03-12T22:46:10;5.03;;;4.00;;
44098;SDS011;29762;50.086;14.364;2023-03-12T22:51:30;5.03;;;3.55;;
44098;SDS011;29762;50.086;14.364;2023-03-12T22:56:50;4.72;;;3.70;;
44098;SDS011;29762;50.086;14.364;2023-03-12T23:02:09;4.40;;;3.70;;
44098;SDS011;29762;50.086;14.364;2023-03-12T23:07:29;5.40;;;3.78;;
44098;SDS011;29762;50.086;14.364;2023-03-12T23:12:49;4.97;;;3.80;;
44098;SDS011;29762;50.086;14.364;2023-03-12T23:18:10;4.65;;;3.78;;
44098;SDS011;29762;50.086;14.364;2023-03-12T23:23:29;4.88;;;3.42;;
44098;SDS011;29762;50.086;14.364;2023-03-12T23:28:49;4.05;;;3.20;;
44098;SDS011;29762;50.086;14.364;2023-03-12T23:34:11;5.03;;;3.58;;
44098;SDS011;29762;50.086;14.364;2023-03-12T23:39:30;4.55;;;3.47;;
44098;SDS011;29762;50.086;14.364;2023-03-12T23:44:50;5.78;;;3.22;;
44098;SDS011;29762;50.086;14.364;2023-03-12T23:50:09;3.92;;;3.08;;
44098;SDS011;29762;50.086;14.364;2023-03-12T23:55:30;4.15;;;3.17;;
